Time;durP1;ratioP1;P1;durP2;ratioP2;P2;SDS_P1;SDS_P2;PMS_P1;PMS_P2;Temp;Humidity;BMP_temperature;BMP_pressure;BME280_temperature;BME280_humidity;BME280_pressure;Samples;Min_cycle;Max_cycle;Signal;HPM_P1;HPM_P2
2023/01/12 00:01:26;;;;;;;3.57;1.30;;;8.70;99.90;;;;;;5032080;28;20950;-74
2023/01/12 00:03:54;;;;;;;3.83;1.03;;;8.80;99.90;;;;;;5031878;28;20544;-74
2023/01/12 00:06:21;;;;;;;3.30;1.83;;;8.80;99.90;;;;;;5031635;28;20544;-74
2023/01/12 00:08:49;;;;;;;5.33;1.93;;;8.70;99.90;;;;;;5031823;28;20534;-74
2023/01/12 00:11:21;;;;;;;1.80;1.27;;;8.70;99.90;;;;;;5031600;28;20480;-74
2023/01/12 00:13:48;;;;;;;3.07;1.40;;;8.70;99.90;;;;;;4996751;28;20478;-74
2023/01/12 00:16:36;;;;;;;4.93;1.50;;;8.70;99.90;;;;;;5031822;28;20424;-74
2023/01/12 00:19:09;;;;;;;3.13;1.20;;;8.80;99.90;;;;;;5031689;28;20608;-74
2023/01/12 00:21:48;;;;;;;9.47;1.97;;;8.80;99.90;;;;;;5031894;28;20412;-74
2023/01/12 00:24:16;;;;;;;5.93;2.43;;;8.80;99.90;;;;;;5031530;28;20438;-75
2023/01/12 00:26:46;;;;;;;3.23;1.70;;;8.80;99.90;;;;;;5032126;28;20461;-74
2023/01/12 00:29:13;;;;;;;1.90;1.43;;;8.90;99.90;;;;;;5030912;28;21016;-74
2023/01/12 00:31:40;;;;;;;6.73;2.20;;;8.90;99.90;;;;;;5030802;28;20450;-74
2023/01/12 00:34:07;;;;;;;1.70;1.60;;;8.90;99.90;;;;;;5031277;28;20410;-74
2023/01/12 00:36:34;;;;;;;2.67;1.47;;;8.90;99.90;;;;;;5031024;28;20590;-75
2023/01/12 00:39:01;;;;;;;4.43;2.13;;;9.00;99.90;;;;;;5031295;28;20481;-74
2023/01/12 00:46:58;;;;;;;4.47;1.73;;;9.00;99.90;;;;;;5034894;28;20413;-75
2023/01/12 00:49:25;;;;;;;2.20;1.70;;;8.90;99.90;;;;;;5034339;28;20481;-74
2023/01/12 00:51:56;;;;;;;5.27;1.97;;;8.80;99.90;;;;;;5034685;28;20549;-75
2023/01/12 00:54:23;;;;;;;2.50;1.07;;;8.90;99.90;;;;;;5034986;28;20434;-75
2023/01/12 00:56:50;;;;;;;1.20;1.10;;;9.00;99.90;;;;;;5034944;28;20453;-75
2023/01/12 00:59:18;;;;;;;4.10;1.47;;;8.90;99.90;;;;;;5034247;28;20516;-75
2023/01/12 01:01:45;;;;;;;1.57;1.40;;;8.80;99.90;;;;;;5034566;28;20519;-74
2023/01/12 01:04:12;;;;;;;1.83;0.93;;;8.90;99.90;;;;;;5034491;28;20868;-74
2023/01/12 01:06:39;;;;;;;1.30;1.20;;;8.90;99.90;;;;;;5034373;28;20450;-74
2023/01/12 01:09:07;;;;;;;2.43;1.13;;;8.90;99.90;;;;;;5032790;28;20836;-75
2023/01/12 01:11:34;;;;;;;3.13;1.00;;;8.90;99.90;;;;;;5034116;28;20527;-74
2023/01/12 01:14:02;;;;;;;1.30;1.10;;;8.90;99.90;;;;;;5034004;28;20450;-74
2023/01/12 01:16:30;;;;;;;9.13;1.90;;;8.90;99.90;;;;;;5037638;28;20506;-74
2023/01/12 01:19:04;;;;;;;5.30;1.20;;;8.90;99.90;;;;;;5037684;28;20585;-75
2023/01/12 01:21:31;;;;;;;2.80;1.67;;;8.90;99.90;;;;;;5033966;28;20424;-75
2023/01/12 01:23:58;;;;;;;3.43;3.23;;;8.90;99.90;;;;;;5042213;28;20843;-74
2023/01/12 01:26:25;;;;;;;4.23;1.93;;;9.00;99.90;;;;;;5034305;28;20816;-74
2023/01/12 01:28:52;;;;;;;1.57;1.13;;;9.00;99.90;;;;;;5033839;28;20449;-74
2023/01/12 01:31:24;;;;;;;1.40;1.07;;;9.00;99.90;;;;;;5034164;28;20470;-74
2023/01/12 01:33:53;;;;;;;3.30;1.17;;;9.00;99.90;;;;;;5034283;28;20695;-74
2023/01/12 01:36:20;;;;;;;2.20;1.30;;;9.10;99.90;;;;;;5033790;28;20511;-74
2023/01/12 01:38:49;;;;;;;1.83;1.73;;;9.00;99.90;;;;;;5033548;28;20475;-74
2023/01/12 01:41:19;;;;;;;1.23;0.90;;;9.00;99.90;;;;;;5033389;28;20419;-74
2023/01/12 01:43:58;;;;;;;2.80;1.27;;;9.10;99.90;;;;;;5034167;28;20827;-75
2023/01/12 01:46:31;;;;;;;2.53;1.67;;;9.00;99.90;;;;;;5033537;28;20453;-75
2023/01/12 01:49:13;;;;;;;2.10;1.43;;;9.10;99.90;;;;;;5033288;28;20488;-74
2023/01/12 01:51:40;;;;;;;1.77;1.10;;;9.10;99.90;;;;;;5033244;28;20413;-74
2023/01/12 01:54:07;;;;;;;2.83;1.47;;;9.20;99.90;;;;;;5033072;28;20421;-74
2023/01/12 01:56:36;;;;;;;1.13;0.80;;;9.20;99.90;;;;;;5033235;28;20649;-75
2023/01/12 01:59:06;;;;;;;7.80;2.17;;;9.20;99.90;;;;;;5033006;28;20998;-72
2023/01/12 02:01:39;;;;;;;1.57;1.00;;;9.20;99.90;;;;;;5033323;28;20466;-74
2023/01/12 02:04:08;;;;;;;3.10;1.77;;;9.20;99.90;;;;;;5039973;28;20518;-75
2023/01/12 02:06:35;;;;;;;11.90;2.67;;;9.20;99.90;;;;;;5033196;28;20934;-74
2023/01/12 02:09:08;;;;;;;7.60;1.23;;;9.20;99.90;;;;;;5033260;28;20477;-75
2023/01/12 02:17:17;;;;;;;1.67;1.10;;;9.30;99.90;;;;;;5032755;28;20429;-73
2023/01/12 02:20:17;;;;;;;2.77;1.20;;;9.20;99.90;;;;;;5033094;28;20514;-74
2023/01/12 02:23:20;;;;;;;5.97;4.30;;;9.30;99.90;;;;;;5032755;28;20455;-75
2023/01/12 02:26:25;;;;;;;2.20;0.90;;;9.30;99.90;;;;;;5017283;28;20460;-74
2023/01/12 02:29:23;;;;;;;1.57;1.30;;;9.30;99.90;;;;;;5022265;28;20547;-74
2023/01/12 02:32:03;;;;;;;10.53;2.07;;;9.30;99.90;;;;;;5032765;28;20467;-74
2023/01/12 02:34:42;;;;;;;1.33;1.00;;;9.30;99.90;;;;;;5032781;28;20412;-75
2023/01/12 02:37:18;;;;;;;5.87;3.50;;;9.30;99.90;;;;;;5039594;28;20497;-74
2023/01/12 02:39:58;;;;;;;3.20;1.33;;;9.30;99.90;;;;;;5033254;28;20409;-74
2023/01/12 02:42:46;;;;;;;3.30;1.33;;;9.30;99.90;;;;;;5032698;28;20797;-74
2023/01/12 02:45:26;;;;;;;5.30;1.90;;;9.30;99.90;;;;;;5040897;28;20550;-74
2023/01/12 02:47:58;;;;;;;26.07;2.83;;;9.30;99.90;;;;;;5033018;28;20558;-75
2023/01/12 02:50:33;;;;;;;2.83;1.80;;;9.40;99.90;;;;;;5032301;28;20488;-75
2023/01/12 02:53:05;;;;;;;4.93;1.87;;;9.30;99.90;;;;;;5032424;28;20408;-74
2023/01/12 02:55:33;;;;;;;21.13;2.60;;;9.20;99.90;;;;;;5032040;28;20451;-74
2023/01/12 02:58:02;;;;;;;2.13;1.57;;;9.30;99.90;;;;;;5032542;28;20886;-74
2023/01/12 03:00:36;;;;;;;2.93;1.63;;;9.30;99.90;;;;;;5032027;28;20524;-74
2023/01/12 03:03:05;;;;;;;2.33;2.03;;;9.30;99.90;;;;;;5032254;28;20415;-75
2023/01/12 03:05:32;;;;;;;2.93;1.50;;;9.20;99.90;;;;;;5032058;28;20424;-74
2023/01/12 03:08:01;;;;;;;2.37;1.60;;;9.10;99.90;;;;;;5032345;28;20890;-74
2023/01/12 03:10:41;;;;;;;8.30;1.67;;;9.20;99.90;;;;;;5032083;28;20888;-75
2023/01/12 03:13:11;;;;;;;1.23;1.00;;;9.10;99.90;;;;;;5031767;28;20446;-75
2023/01/12 03:15:41;;;;;;;3.73;1.43;;;9.10;99.90;;;;;;5031862;28;20491;-74
2023/01/12 03:18:15;;;;;;;3.70;1.70;;;9.10;99.90;;;;;;5031739;28;20472;-74
2023/01/12 03:20:47;;;;;;;10.63;2.37;;;9.10;99.90;;;;;;5032079;28;20433;-75
2023/01/12 03:23:19;;;;;;;7.03;2.30;;;9.00;99.90;;;;;;5032774;28;20429;-74
2023/01/12 03:25:48;;;;;;;5.03;1.93;;;8.90;99.90;;;;;;5035415;28;20446;-74
2023/01/12 03:28:18;;;;;;;4.50;2.23;;;9.00;99.90;;;;;;5031456;28;20553;-74
2023/01/12 03:30:54;;;;;;;1.90;1.20;;;8.90;99.90;;;;;;5031203;28;20527;-74
2023/01/12 03:33:23;;;;;;;2.90;1.67;;;9.00;99.90;;;;;;5031444;28;20974;-74
2023/01/12 03:35:56;;;;;;;5.60;2.10;;;9.00;99.90;;;;;;5031815;28;20836;-75
2023/01/12 03:38:28;;;;;;;2.30;1.80;;;9.00;99.90;;;;;;5031629;28;20482;-75
2023/01/12 03:41:03;;;;;;;3.90;1.07;;;9.00;99.90;;;;;;5031699;28;20586;-75
2023/01/12 03:43:33;;;;;;;4.90;1.60;;;8.90;99.90;;;;;;5031539;28;20422;-74
2023/01/12 03:46:07;;;;;;;3.67;1.37;;;8.90;99.90;;;;;;5031184;28;20477;-74
2023/01/12 03:48:39;;;;;;;1.60;1.00;;;8.90;99.90;;;;;;5031510;28;20470;-75
2023/01/12 03:51:12;;;;;;;1.97;1.67;;;9.00;99.90;;;;;;5031141;28;20529;-74
2023/01/12 03:53:41;;;;;;;11.80;1.53;;;9.00;99.90;;;;;;5031304;28;20521;-75
2023/01/12 03:56:11;;;;;;;4.80;2.00;;;9.00;99.90;;;;;;5035539;28;20508;-75
2023/01/12 03:58:38;;;;;;;3.00;1.47;;;9.00;99.90;;;;;;5035070;28;20788;-74
2023/01/12 04:01:06;;;;;;;4.53;2.00;;;9.00;99.90;;;;;;5031067;28;20529;-75
2023/01/12 04:03:35;;;;;;;12.87;2.70;;;9.00;99.90;;;;;;5033078;28;20458;-74
2023/01/12 04:06:01;;;;;;;1.77;1.00;;;9.00;99.90;;;;;;5037493;28;20463;-75
2023/01/12 04:08:29;;;;;;;2.57;1.23;;;9.00;99.90;;;;;;5031395;28;20549;-74
2023/01/12 04:10:56;;;;;;;6.10;1.33;;;9.00;99.90;;;;;;5031765;28;20488;-74
2023/01/12 04:13:23;;;;;;;1.63;1.10;;;9.00;99.90;;;;;;5031402;28;20446;-74
2023/01/12 04:15:50;;;;;;;2.50;1.53;;;9.10;99.90;;;;;;5032307;28;20449;-74
2023/01/12 04:18:17;;;;;;;7.23;2.20;;;9.10;99.90;;;;;;5034861;28;20446;-74
2023/01/12 04:20:47;;;;;;;8.37;1.50;;;9.10;99.90;;;;;;5034659;28;20459;-75
2023/01/12 04:23:13;;;;;;;4.00;1.00;;;9.10;99.90;;;;;;5035005;28;20537;-75
2023/01/12 04:25:40;;;;;;;3.50;1.57;;;9.10;99.90;;;;;;5034751;28;20433;-74
2023/01/12 04:28:06;;;;;;;1.60;0.83;;;9.10;99.90;;;;;;5035118;28;20889;-74
2023/01/12 04:30:34;;;;;;;1.10;0.90;;;9.10;99.90;;;;;;5034668;28;20494;-74
2023/01/12 04:33:06;;;;;;;1.03;0.83;;;9.10;99.90;;;;;;5035166;28;20520;-75
2023/01/12 04:35:33;;;;;;;3.07;1.20;;;9.10;99.90;;;;;;5034711;28;20450;-75
2023/01/12 04:38:05;;;;;;;3.00;1.20;;;9.20;99.90;;;;;;5034736;28;20529;-75
2023/01/12 04:40:32;;;;;;;1.37;1.10;;;9.20;99.90;;;;;;5034286;28;20402;-75
2023/01/12 04:43:03;;;;;;;2.13;1.93;;;9.20;99.90;;;;;;5034398;28;20447;-73
2023/01/12 04:45:35;;;;;;;8.00;1.70;;;9.20;99.90;;;;;;5038316;28;20523;-75
2023/01/12 04:48:03;;;;;;;1.40;1.27;;;9.20;99.90;;;;;;5034476;28;20449;-72
2023/01/12 04:50:30;;;;;;;2.70;2.40;;;9.20;99.90;;;;;;5034243;28;20546;-73
2023/01/12 04:52:57;;;;;;;3.13;1.23;;;9.10;99.90;;;;;;5034218;28;20433;-75
2023/01/12 04:55:25;;;;;;;0.90;0.70;;;9.20;99.90;;;;;;5034121;28;20432;-73
2023/01/12 04:57:52;;;;;;;1.53;0.93;;;9.10;99.90;;;;;;5033895;28;20456;-73
2023/01/12 05:00:20;;;;;;;1.60;1.00;;;9.10;99.90;;;;;;5033828;28;20451;-73
2023/01/12 05:02:47;;;;;;;1.57;0.90;;;9.10;99.90;;;;;;5033189;28;20451;-74
2023/01/12 05:05:14;;;;;;;14.70;4.47;;;9.10;99.90;;;;;;5033782;28;20964;-75
2023/01/12 05:10:21;;;;;;;1.37;1.00;;;9.00;99.90;;;;;;5034005;28;20472;-74
2023/01/12 05:10:31;;;;;;;3.03;2.00;;;9.10;99.90;;;;;;5005330;28;20824;-74
2023/01/12 05:12:57;;;;;;;1.50;1.20;;;9.00;99.90;;;;;;5033608;28;20495;-74
2023/01/12 05:15:25;;;;;;;1.10;0.80;;;9.00;99.90;;;;;;5036169;28;20596;-74
2023/01/12 05:17:53;;;;;;;1.13;0.97;;;9.00;99.90;;;;;;5036746;28;20469;-74
2023/01/12 05:20:20;;;;;;;1.87;1.67;;;9.00;99.90;;;;;;5033893;28;20541;-74
2023/01/12 05:22:50;;;;;;;3.10;1.50;;;9.00;99.90;;;;;;5033816;28;20448;-75
2023/01/12 05:25:17;;;;;;;1.27;1.17;;;9.00;99.90;;;;;;5037014;28;20463;-74
2023/01/12 05:27:45;;;;;;;2.13;1.60;;;8.90;99.90;;;;;;5035351;28;20514;-75
2023/01/12 05:30:12;;;;;;;1.30;1.00;;;8.90;99.90;;;;;;5033863;28;20570;-74
2023/01/12 05:32:41;;;;;;;1.10;0.90;;;8.90;99.90;;;;;;5033482;28;20907;-74
2023/01/12 05:35:09;;;;;;;1.00;0.80;;;8.90;99.90;;;;;;5033435;28;20559;-74
2023/01/12 05:37:36;;;;;;;1.93;0.93;;;8.90;99.90;;;;;;5032675;28;20473;-74
2023/01/12 05:40:05;;;;;;;2.13;1.43;;;8.80;99.90;;;;;;5033309;28;20443;-74
2023/01/12 05:45:18;;;;;;;1.43;1.13;;;8.80;99.90;;;;;;5033214;28;20426;-74
2023/01/12 05:47:45;;;;;;;2.97;0.83;;;8.80;99.90;;;;;;5033224;28;20821;-74
2023/01/12 05:50:13;;;;;;;1.13;1.03;;;8.80;99.90;;;;;;5032797;28;20457;-74
2023/01/12 05:52:43;;;;;;;1.00;0.90;;;8.80;99.90;;;;;;5032822;28;20434;-74
2023/01/12 05:55:12;;;;;;;1.20;0.87;;;8.70;99.90;;;;;;5032556;28;20460;-75
2023/01/12 05:57:39;;;;;;;0.90;0.67;;;8.70;99.90;;;;;;5032889;28;20448;-74
2023/01/12 06:00:08;;;;;;;0.90;0.67;;;8.60;99.90;;;;;;5033503;28;20521;-75
2023/01/12 06:02:36;;;;;;;1.00;0.90;;;8.60;99.90;;;;;;5033041;28;20888;-75
2023/01/12 06:05:04;;;;;;;1.13;0.77;;;8.60;99.90;;;;;;5033474;28;20436;-74
2023/01/12 06:07:30;;;;;;;4.00;1.53;;;8.70;99.90;;;;;;5034728;28;20467;-75
2023/01/12 06:09:57;;;;;;;1.40;1.27;;;8.60;99.90;;;;;;5032887;28;20420;-75
2023/01/12 06:15:10;;;;;;;1.83;1.00;;;8.60;99.90;;;;;;5033007;28;20420;-75
2023/01/12 06:17:38;;;;;;;1.27;1.10;;;8.60;99.90;;;;;;5032897;28;20475;-74
2023/01/12 06:20:06;;;;;;;1.10;0.97;;;8.60;99.90;;;;;;5033465;28;20424;-74
2023/01/12 06:22:33;;;;;;;1.13;0.90;;;8.70;99.90;;;;;;5033105;28;20556;-75
2023/01/12 06:25:00;;;;;;;1.27;0.90;;;8.60;99.90;;;;;;5033590;28;20451;-75
2023/01/12 06:27:34;;;;;;;1.10;0.93;;;8.60;99.90;;;;;;5032577;28;20448;-74
2023/01/12 06:30:01;;;;;;;1.20;0.93;;;8.70;99.90;;;;;;5032243;28;20408;-75
2023/01/12 06:32:28;;;;;;;1.40;1.20;;;8.70;99.90;;;;;;5032210;28;20467;-74
2023/01/12 06:34:57;;;;;;;4.23;0.93;;;8.70;99.90;;;;;;5035535;28;20485;-75
2023/01/12 06:37:27;;;;;;;1.20;0.90;;;8.70;99.90;;;;;;5034408;28;20485;-74
2023/01/12 06:39:54;;;;;;;1.77;1.10;;;8.70;99.90;;;;;;5031861;28;20445;-75
2023/01/12 06:42:30;;;;;;;1.30;1.10;;;8.70;99.90;;;;;;4998879;28;20525;-75
2023/01/12 06:44:58;;;;;;;0.90;0.80;;;8.70;99.90;;;;;;5032537;28;20410;-74
2023/01/12 06:47:26;;;;;;;1.00;0.87;;;8.70;99.90;;;;;;5035073;28;20518;-75
2023/01/12 06:49:53;;;;;;;2.60;1.10;;;8.70;99.90;;;;;;5032463;28;20531;-74
2023/01/12 06:52:24;;;;;;;0.90;0.60;;;8.70;99.90;;;;;;5032153;28;20460;-75
2023/01/12 06:54:51;;;;;;;1.93;0.93;;;8.70;99.90;;;;;;5032081;28;20429;-73
2023/01/12 06:57:18;;;;;;;1.53;1.37;;;8.80;99.90;;;;;;5032127;28;20535;-74
2023/01/12 06:59:45;;;;;;;1.33;1.13;;;8.80;99.90;;;;;;5031710;28;20524;-74
2023/01/12 07:02:14;;;;;;;1.70;1.10;;;8.80;99.90;;;;;;5031877;28;20944;-73
2023/01/12 07:04:42;;;;;;;1.07;0.70;;;8.70;99.90;;;;;;5032133;28;20836;-73
2023/01/12 07:07:10;;;;;;;1.10;0.90;;;8.80;99.90;;;;;;5032531;28;20541;-73
2023/01/12 07:09:39;;;;;;;1.00;0.80;;;8.80;99.90;;;;;;5032722;28;20429;-73
2023/01/12 07:12:06;;;;;;;1.20;0.80;;;8.80;99.90;;;;;;5032501;28;20923;-74
2023/01/12 07:14:33;;;;;;;2.70;0.90;;;8.80;99.90;;;;;;5032447;28;20879;-74
2023/01/12 07:17:01;;;;;;;1.00;0.80;;;8.90;99.90;;;;;;5032334;28;20434;-73
2023/01/12 07:19:28;;;;;;;2.90;1.57;;;8.80;99.90;;;;;;5031820;28;20434;-74
2023/01/12 07:21:55;;;;;;;1.43;1.20;;;8.80;99.90;;;;;;5032652;28;20493;-74
2023/01/12 07:24:22;;;;;;;2.33;1.70;;;8.90;99.90;;;;;;5032600;28;20542;-74
2023/01/12 07:26:51;;;;;;;2.13;1.13;;;8.80;99.90;;;;;;5033257;28;20537;-74
2023/01/12 07:29:18;;;;;;;5.23;1.43;;;8.80;99.90;;;;;;5032830;28;20473;-73
2023/01/12 07:31:47;;;;;;;1.40;1.30;;;8.80;99.90;;;;;;5031857;28;20460;-74
2023/01/12 07:34:15;;;;;;;1.60;1.10;;;8.80;99.90;;;;;;5032334;28;20425;-73
2023/01/12 07:36:42;;;;;;;2.50;1.83;;;8.80;99.90;;;;;;5032598;28;20504;-75
2023/01/12 07:39:10;;;;;;;3.53;1.73;;;8.90;99.90;;;;;;5031993;28;20448;-73
2023/01/12 07:44:23;;;;;;;5.00;2.50;;;8.90;99.90;;;;;;5032298;28;20403;-73
2023/01/12 07:46:50;;;;;;;1.53;1.43;;;8.90;99.90;;;;;;5031482;28;20524;-73
2023/01/12 07:49:17;;;;;;;1.83;1.00;;;8.90;99.90;;;;;;5031046;28;20501;-73
2023/01/12 07:51:44;;;;;;;1.93;1.00;;;9.00;99.90;;;;;;5034650;28;20499;-73
2023/01/12 07:54:11;;;;;;;2.70;1.23;;;9.00;99.90;;;;;;5037450;28;20458;-73
2023/01/12 07:56:38;;;;;;;2.07;1.27;;;8.90;99.90;;;;;;5039128;28;20493;-73
2023/01/12 07:59:05;;;;;;;2.10;1.30;;;8.90;99.90;;;;;;5036400;28;20507;-74
2023/01/12 08:01:34;;;;;;;1.20;1.10;;;9.00;99.90;;;;;;5036041;28;21024;-73
2023/01/12 08:04:01;;;;;;;1.57;1.13;;;9.00;99.90;;;;;;5035874;28;20437;-73
2023/01/12 08:06:28;;;;;;;2.73;1.43;;;9.00;99.90;;;;;;5035961;28;21018;-74
2023/01/12 08:08:55;;;;;;;5.93;0.90;;;9.00;99.90;;;;;;5038947;28;21036;-73
2023/01/12 08:11:22;;;;;;;1.40;0.97;;;9.10;99.90;;;;;;5036089;28;20517;-74
2023/01/12 08:13:54;;;;;;;1.07;0.87;;;9.10;99.90;;;;;;5000815;28;20806;-74
2023/01/12 08:16:25;;;;;;;2.20;0.90;;;9.10;99.90;;;;;;5035611;28;20454;-73
2023/01/12 08:18:57;;;;;;;1.00;0.70;;;9.10;99.90;;;;;;5035315;28;20530;-75
2023/01/12 08:21:30;;;;;;;1.10;1.00;;;9.20;99.90;;;;;;5035453;28;20420;-73
2023/01/12 08:24:00;;;;;;;10.13;1.40;;;9.20;99.90;;;;;;5035602;28;20412;-74
2023/01/12 08:26:31;;;;;;;1.60;0.93;;;9.20;99.90;;;;;;5035187;28;20522;-73
2023/01/12 08:29:06;;;;;;;1.43;1.33;;;9.20;99.90;;;;;;5036618;28;20554;-74
2023/01/12 08:31:37;;;;;;;5.80;1.30;;;9.30;99.90;;;;;;5035280;28;20561;-74
2023/01/12 08:34:07;;;;;;;3.67;1.10;;;9.30;99.90;;;;;;5035595;28;20514;-73
2023/01/12 08:36:35;;;;;;;2.43;1.33;;;9.30;99.90;;;;;;5034936;28;20478;-74
2023/01/12 08:39:05;;;;;;;1.30;1.00;;;9.40;99.90;;;;;;5034729;28;20593;-73
2023/01/12 08:41:35;;;;;;;1.53;0.93;;;9.40;99.90;;;;;;5034591;28;20459;-73
2023/01/12 08:44:05;;;;;;;4.90;1.50;;;9.40;99.90;;;;;;5035460;28;20422;-74
2023/01/12 08:46:34;;;;;;;2.50;1.17;;;9.40;99.90;;;;;;5034866;28;20460;-74
2023/01/12 08:49:04;;;;;;;1.13;1.03;;;9.40;99.90;;;;;;5037709;28;20532;-73
2023/01/12 08:51:34;;;;;;;3.37;0.87;;;9.40;99.90;;;;;;5034607;28;20497;-74
2023/01/12 08:54:04;;;;;;;1.10;0.90;;;9.40;99.90;;;;;;5034650;28;20451;-74
2023/01/12 08:56:31;;;;;;;2.90;1.20;;;9.50;99.90;;;;;;4999920;28;20978;-73
2023/01/12 08:58:58;;;;;;;1.43;1.33;;;9.50;99.90;;;;;;5035333;28;20482;-74
2023/01/12 09:01:26;;;;;;;2.60;1.80;;;9.50;99.90;;;;;;5035637;28;20493;-74
2023/01/12 09:03:53;;;;;;;1.00;0.80;;;9.60;99.90;;;;;;5036294;28;20430;-74
2023/01/12 09:06:22;;;;;;;1.07;0.87;;;9.60;99.90;;;;;;5034432;28;20536;-73
2023/01/12 09:08:54;;;;;;;2.00;1.47;;;9.60;99.90;;;;;;5034678;28;20486;-73
2023/01/12 09:11:21;;;;;;;2.60;1.63;;;9.60;99.90;;;;;;5034047;28;21000;-73
2023/01/12 09:13:48;;;;;;;2.10;1.23;;;9.60;99.90;;;;;;5036648;28;20422;-74
2023/01/12 09:16:18;;;;;;;1.40;0.90;;;9.70;99.90;;;;;;5037240;28;20518;-74
2023/01/12 09:18:46;;;;;;;1.10;0.90;;;9.70;99.90;;;;;;5034714;28;20506;-73
2023/01/12 09:21:15;;;;;;;1.50;1.40;;;9.70;99.90;;;;;;5034514;28;20464;-73
2023/01/12 09:23:43;;;;;;;1.40;1.00;;;9.70;99.90;;;;;;5034423;28;20460;-74
2023/01/12 09:26:14;;;;;;;1.10;0.87;;;9.70;99.90;;;;;;5034372;28;20425;-74
2023/01/12 09:28:43;;;;;;;1.00;0.90;;;9.80;99.90;;;;;;5034799;28;20458;-74
2023/01/12 09:31:13;;;;;;;1.00;0.80;;;9.80;99.90;;;;;;5034047;28;20425;-74
2023/01/12 09:33:44;;;;;;;2.50;1.33;;;9.90;99.90;;;;;;5034361;28;20766;-74
2023/01/12 09:36:13;;;;;;;1.33;1.10;;;9.90;99.90;;;;;;5034139;28;20914;-75
2023/01/12 09:38:43;;;;;;;6.80;1.20;;;9.90;99.90;;;;;;5033985;28;20547;-73
2023/01/12 09:41:16;;;;;;;2.00;1.07;;;9.90;99.90;;;;;;5033687;28;20830;-74
2023/01/12 09:49:25;;;;;;;2.30;1.10;;;10.00;99.90;;;;;;5033695;28;20410;-74
2023/01/12 09:51:59;;;;;;;1.40;0.90;;;10.00;99.90;;;;;;5033978;28;20881;-75
2023/01/12 09:54:28;;;;;;;1.10;0.87;;;10.10;99.90;;;;;;5033825;28;20430;-75
2023/01/12 09:57:10;;;;;;;1.37;0.87;;;10.10;99.90;;;;;;5033811;28;20525;-74
2023/01/12 09:59:52;;;;;;;1.00;0.80;;;10.20;99.90;;;;;;5033811;28;20436;-74
2023/01/12 10:02:19;;;;;;;1.20;1.00;;;10.20;99.90;;;;;;5033825;28;20522;-74
2023/01/12 10:04:48;;;;;;;2.00;1.00;;;10.20;99.90;;;;;;5034161;28;20478;-75
2023/01/12 10:07:17;;;;;;;1.00;0.87;;;10.30;99.90;;;;;;5033830;28;20553;-75
2023/01/12 10:09:44;;;;;;;1.23;0.80;;;10.40;99.90;;;;;;5033548;28;20474;-75
2023/01/12 10:12:21;;;;;;;1.30;1.00;;;10.40;99.90;;;;;;5033387;28;20474;-75
2023/01/12 10:15:08;;;;;;;1.30;0.90;;;10.40;99.90;;;;;;5032689;28;20497;-74
2023/01/12 10:17:43;;;;;;;1.20;0.83;;;10.40;99.90;;;;;;5033083;28;20467;-75
2023/01/12 10:20:17;;;;;;;2.60;1.00;;;10.50;99.90;;;;;;5033587;28;20893;-74
2023/01/12 10:22:48;;;;;;;1.83;1.20;;;10.50;99.90;;;;;;5034335;28;20767;-74
2023/01/12 10:25:30;;;;;;;2.30;1.20;;;10.50;99.90;;;;;;5033307;28;20488;-74
2023/01/12 10:28:00;;;;;;;1.53;1.13;;;10.50;99.90;;;;;;5033337;28;20470;-73
2023/01/12 10:30:30;;;;;;;1.43;1.33;;;10.60;99.90;;;;;;5033596;28;20482;-74
2023/01/12 10:32:57;;;;;;;1.03;0.93;;;10.60;99.90;;;;;;5034698;28;20536;-74
2023/01/12 10:35:25;;;;;;;1.20;1.00;;;10.70;99.90;;;;;;5037990;28;20450;-74
2023/01/12 10:37:55;;;;;;;1.10;0.70;;;10.70;99.90;;;;;;5033537;28;20475;-74
2023/01/12 10:40:29;;;;;;;1.20;0.90;;;10.60;99.90;;;;;;5033090;28;20494;-74
2023/01/12 10:43:20;;;;;;;1.20;0.90;;;10.70;99.90;;;;;;5032958;28;20410;-74
2023/01/12 10:46:03;;;;;;;1.00;0.83;;;10.80;99.90;;;;;;5033116;28;20509;-74
2023/01/12 10:48:30;;;;;;;2.50;1.00;;;10.80;99.90;;;;;;5032839;28;20569;-74
2023/01/12 10:51:02;;;;;;;2.03;1.93;;;10.80;99.90;;;;;;5032472;28;20460;-74
2023/01/12 10:53:35;;;;;;;1.10;0.90;;;10.70;99.90;;;;;;5032702;28;20479;-74
2023/01/12 10:56:14;;;;;;;1.50;1.30;;;10.60;99.90;;;;;;5031085;28;20463;-74
2023/01/12 10:58:44;;;;;;;1.73;1.17;;;10.60;99.90;;;;;;5032717;28;20471;-74
2023/01/12 11:01:15;;;;;;;1.00;0.70;;;10.60;99.90;;;;;;5032596;28;20456;-75
2023/01/12 11:03:43;;;;;;;2.13;0.90;;;10.60;99.90;;;;;;5032797;28;20447;-74
2023/01/12 11:06:25;;;;;;;1.00;0.73;;;10.60;99.90;;;;;;5032167;28;20956;-75
2023/01/12 11:08:52;;;;;;;1.00;0.90;;;10.60;99.90;;;;;;5032581;28;20488;-74
2023/01/12 11:11:30;;;;;;;1.60;1.23;;;10.60;99.90;;;;;;5032438;28;20423;-75
2023/01/12 11:14:00;;;;;;;1.20;0.90;;;10.60;99.90;;;;;;5032939;28;20554;-74
2023/01/12 11:16:32;;;;;;;2.70;1.47;;;10.70;99.90;;;;;;5032535;28;20448;-74
2023/01/12 11:19:16;;;;;;;3.50;1.23;;;10.70;99.90;;;;;;5032872;28;20467;-74
2023/01/12 11:21:51;;;;;;;1.93;0.87;;;10.70;99.90;;;;;;5032852;28;20432;-75
2023/01/12 11:24:31;;;;;;;1.00;0.80;;;10.80;99.90;;;;;;5032641;28;20565;-74
2023/01/12 11:27:00;;;;;;;1.83;1.20;;;10.70;99.90;;;;;;5032738;28;20402;-74
2023/01/12 11:29:39;;;;;;;1.10;0.70;;;10.80;99.90;;;;;;5032001;28;20538;-75
2023/01/12 11:32:14;;;;;;;1.23;1.13;;;10.70;99.90;;;;;;5031713;28;20992;-74
2023/01/12 11:34:55;;;;;;;4.20;1.30;;;10.70;99.90;;;;;;5031987;28;20857;-75
2023/01/12 11:37:23;;;;;;;2.40;1.07;;;10.80;99.90;;;;;;5031251;28;20999;-74
2023/01/12 11:39:53;;;;;;;1.43;1.33;;;10.80;99.90;;;;;;5032471;28;20454;-75
2023/01/12 11:45:20;;;;;;;2.77;2.10;;;10.80;99.90;;;;;;5032315;28;20390;-74
2023/01/12 11:47:52;;;;;;;1.10;0.90;;;10.70;99.90;;;;;;5031697;28;20450;-74
2023/01/12 11:50:24;;;;;;;1.33;1.00;;;10.80;99.90;;;;;;5032041;28;20439;-74
2023/01/12 11:52:52;;;;;;;2.83;1.33;;;10.70;99.90;;;;;;5034586;28;20451;-74
2023/01/12 11:55:43;;;;;;;2.13;1.13;;;10.80;99.90;;;;;;5035272;28;20474;-74
2023/01/12 11:58:20;;;;;;;1.53;1.17;;;10.70;99.90;;;;;;5032046;28;20453;-74
2023/01/12 12:01:01;;;;;;;0.90;0.70;;;10.70;99.90;;;;;;5032032;28;20535;-74
2023/01/12 12:03:54;;;;;;;1.30;0.87;;;10.70;99.90;;;;;;5031910;28;20450;-74
2023/01/12 12:06:45;;;;;;;1.20;1.10;;;10.60;99.90;;;;;;5024847;28;20500;-74
2023/01/12 12:09:32;;;;;;;1.23;0.90;;;10.60;99.90;;;;;;5031540;28;20543;-74
2023/01/12 12:12:04;;;;;;;1.20;0.93;;;10.60;99.90;;;;;;5032595;28;20439;-74
2023/01/12 12:14:46;;;;;;;2.33;0.90;;;10.60;99.90;;;;;;5031476;28;20515;-74
2023/01/12 12:17:20;;;;;;;1.20;0.80;;;10.60;99.90;;;;;;5031431;28;20558;-74
2023/01/12 12:19:59;;;;;;;1.30;1.20;;;10.50;99.90;;;;;;5031815;28;20897;-74
2023/01/12 12:22:51;;;;;;;2.10;1.37;;;10.50;99.90;;;;;;5032460;28;20440;-74
2023/01/12 12:25:23;;;;;;;1.13;0.97;;;10.60;99.90;;;;;;5031748;28;20430;-74
2023/01/12 12:28:18;;;;;;;2.07;1.13;;;10.60;99.90;;;;;;5032017;28;20520;-74
2023/01/12 12:31:01;;;;;;;1.93;1.10;;;10.50;99.90;;;;;;5031172;28;20447;-74
2023/01/12 12:33:42;;;;;;;1.80;1.00;;;10.60;99.90;;;;;;5031044;28;20591;-74
2023/01/12 12:36:17;;;;;;;2.80;2.00;;;10.60;99.90;;;;;;5031778;28;20534;-74
2023/01/12 12:39:12;;;;;;;5.83;2.10;;;10.60;99.90;;;;;;5035464;28;20532;-74
2023/01/12 12:47:51;;;;;;;4.40;2.03;;;10.50;99.90;;;;;;5034529;28;21175;-75
2023/01/12 12:50:23;;;;;;;13.47;4.83;;;10.60;99.90;;;;;;5035366;28;20586;-74
2023/01/12 12:53:21;;;;;;;5.33;1.50;;;10.60;99.90;;;;;;5035681;28;20525;-74
2023/01/12 12:55:50;;;;;;;11.00;4.90;;;10.50;99.90;;;;;;5035238;28;20463;-75
2023/01/12 12:58:45;;;;;;;1.70;1.10;;;10.40;99.90;;;;;;5035305;28;20510;-74
2023/01/12 13:01:54;;;;;;;4.20;1.50;;;10.40;99.90;;;;;;5036203;28;20434;-74
2023/01/12 13:04:56;;;;;;;1.20;1.10;;;10.40;99.90;;;;;;5035340;28;20773;-75
2023/01/12 13:07:26;;;;;;;1.33;1.23;;;10.40;99.90;;;;;;5035402;28;20481;-74
2023/01/12 13:10:09;;;;;;;1.00;0.90;;;10.40;99.90;;;;;;5001669;28;20445;-74
2023/01/12 13:12:37;;;;;;;1.50;1.10;;;10.50;99.90;;;;;;5003243;28;20520;-74
2023/01/12 13:15:34;;;;;;;1.80;1.10;;;10.50;99.90;;;;;;5035924;28;20438;-74
2023/01/12 13:18:01;;;;;;;1.10;0.80;;;10.50;99.90;;;;;;5035508;28;20467;-75
2023/01/12 13:20:51;;;;;;;2.70;1.00;;;10.50;99.90;;;;;;5038276;28;20478;-74
2023/01/12 13:23:54;;;;;;;14.43;2.00;;;10.50;99.90;;;;;;5042984;28;20437;-74
2023/01/12 13:26:45;;;;;;;1.57;1.37;;;10.50;99.90;;;;;;4975691;28;20417;-76
2023/01/12 13:29:48;;;;;;;1.10;0.93;;;10.50;99.90;;;;;;4975651;28;20481;-75
2023/01/12 13:32:50;;;;;;;1.00;0.70;;;10.60;99.90;;;;;;5027117;28;20539;-74
2023/01/12 13:35:28;;;;;;;1.00;0.70;;;10.60;99.90;;;;;;5034357;28;20488;-74
2023/01/12 13:38:05;;;;;;;0.90;0.70;;;10.60;99.90;;;;;;5034440;28;20459;-74
2023/01/12 13:40:34;;;;;;;1.00;0.90;;;10.70;99.90;;;;;;5034130;28;20414;-75
2023/01/12 13:43:18;;;;;;;1.43;0.87;;;10.70;99.90;;;;;;5035028;28;20425;-75
2023/01/12 13:45:56;;;;;;;1.37;1.03;;;10.80;99.90;;;;;;5004269;28;20423;-75
2023/01/12 13:48:24;;;;;;;1.70;1.00;;;10.80;99.90;;;;;;5033526;28;20499;-75
2023/01/12 13:50:58;;;;;;;1.93;0.90;;;10.70;99.90;;;;;;5034259;28;20885;-74
2023/01/12 13:53:26;;;;;;;1.20;0.80;;;10.80;99.90;;;;;;5034039;28;20812;-74